sensor_id;sensor_type;location;lat;lon;timestamp;P1;durP1;ratioP1;P2;durP2;ratioP2
70543;SDS011;58097;48.364;-1.224;2023-02-11T00:01:12;39.13;;;23.08;;
70543;SDS011;58097;48.364;-1.224;2023-02-11T00:03:44;42.80;;;23.63;;
70543;SDS011;58097;48.364;-1.224;2023-02-11T00:06:09;35.78;;;21.77;;
70543;SDS011;58097;48.364;-1.224;2023-02-11T00:08:35;39.40;;;22.23;;
70543;SDS011;58097;48.364;-1.224;2023-02-11T00:11:01;34.33;;;21.08;;
70543;SDS011;58097;48.364;-1.224;2023-02-11T00:13:27;36.17;;;19.85;;
70543;SDS011;58097;48.364;-1.224;2023-02-11T00:15:53;34.15;;;20.92;;
70543;SDS011;58097;48.364;-1.224;2023-02-11T00:18:19;30.75;;;18.17;;
70543;SDS011;58097;48.364;-1.224;2023-02-11T00:20:44;28.73;;;16.92;;
70543;SDS011;58097;48.364;-1.224;2023-02-11T00:23:10;31.45;;;18.50;;
70543;SDS011;58097;48.364;-1.224;2023-02-11T00:25:42;31.27;;;19.83;;
70543;SDS011;58097;48.364;-1.224;2023-02-11T00:28:09;35.47;;;21.63;;
70543;SDS011;58097;48.364;-1.224;2023-02-11T00:30:35;30.05;;;19.00;;
70543;SDS011;58097;48.364;-1.224;2023-02-11T00:33:01;33.67;;;20.08;;
70543;SDS011;58097;48.364;-1.224;2023-02-11T00:35:27;31.17;;;18.35;;
70543;SDS011;58097;48.364;-1.224;2023-02-11T00:37:53;37.05;;;21.35;;
70543;SDS011;58097;48.364;-1.224;2023-02-11T00:40:18;34.85;;;19.98;;
70543;SDS011;58097;48.364;-1.224;2023-02-11T00:42:44;35.85;;;19.90;;
70543;SDS011;58097;48.364;-1.224;2023-02-11T00:45:10;33.83;;;20.25;;
70543;SDS011;58097;48.364;-1.224;2023-02-11T00:47:35;35.25;;;20.17;;
70543;SDS011;58097;48.364;-1.224;2023-02-11T00:50:01;32.97;;;19.13;;
70543;SDS011;58097;48.364;-1.224;2023-02-11T00:52:29;35.75;;;20.17;;
70543;SDS011;58097;48.364;-1.224;2023-02-11T00:54:55;34.45;;;18.92;;
70543;SDS011;58097;48.364;-1.224;2023-02-11T00:57:20;31.13;;;18.83;;
70543;SDS011;58097;48.364;-1.224;2023-02-11T00:59:46;42.65;;;20.63;;
70543;SDS011;58097;48.364;-1.224;2023-02-11T01:02:11;39.83;;;22.17;;
70543;SDS011;58097;48.364;-1.224;2023-02-11T01:04:37;41.08;;;22.38;;
70543;SDS011;58097;48.364;-1.224;2023-02-11T01:07:02;41.50;;;23.25;;
70543;SDS011;58097;48.364;-1.224;2023-02-11T01:09:28;39.08;;;22.02;;
70543;SDS011;58097;48.364;-1.224;2023-02-11T01:11:53;44.17;;;22.73;;
70543;SDS011;58097;48.364;-1.224;2023-02-11T01:14:18;47.22;;;24.52;;
70543;SDS011;58097;48.364;-1.224;2023-02-11T01:16:44;41.30;;;24.95;;
70543;SDS011;58097;48.364;-1.224;2023-02-11T01:19:09;44.85;;;24.70;;
70543;SDS011;58097;48.364;-1.224;2023-02-11T01:21:34;37.80;;;22.38;;
70543;SDS011;58097;48.364;-1.224;2023-02-11T01:24:00;42.42;;;22.70;;
70543;SDS011;58097;48.364;-1.224;2023-02-11T01:26:25;38.72;;;23.02;;
70543;SDS011;58097;48.364;-1.224;2023-02-11T01:28:50;38.38;;;23.10;;
70543;SDS011;58097;48.364;-1.224;2023-02-11T01:31:16;38.03;;;21.10;;
70543;SDS011;58097;48.364;-1.224;2023-02-11T01:33:41;35.10;;;21.55;;
70543;SDS011;58097;48.364;-1.224;2023-02-11T01:36:07;37.63;;;21.63;;
70543;SDS011;58097;48.364;-1.224;2023-02-11T01:38:33;36.97;;;22.10;;
70543;SDS011;58097;48.364;-1.224;2023-02-11T01:41:04;37.55;;;21.30;;
70543;SDS011;58097;48.364;-1.224;2023-02-11T01:43:33;35.70;;;22.08;;
70543;SDS011;58097;48.364;-1.224;2023-02-11T01:51:35;32.10;;;20.85;;
70543;SDS011;58097;48.364;-1.224;2023-02-11T01:54:23;39.88;;;22.70;;
70543;SDS011;58097;48.364;-1.224;2023-02-11T01:57:12;36.17;;;20.30;;
70543;SDS011;58097;48.364;-1.224;2023-02-11T02:10:40;30.95;;;20.30;;
70543;SDS011;58097;48.364;-1.224;2023-02-11T02:13:08;34.20;;;21.25;;
70543;SDS011;58097;48.364;-1.224;2023-02-11T02:15:36;37.47;;;23.08;;
70543;SDS011;58097;48.364;-1.224;2023-02-11T02:18:19;43.58;;;24.42;;
70543;SDS011;58097;48.364;-1.224;2023-02-11T02:23:45;37.40;;;22.25;;
70543;SDS011;58097;48.364;-1.224;2023-02-11T02:34:16;39.20;;;22.38;;
70543;SDS011;58097;48.364;-1.224;2023-02-11T02:39:21;35.60;;;20.00;;
70543;SDS011;58097;48.364;-1.224;2023-02-11T02:41:51;34.53;;;20.35;;
70543;SDS011;58097;48.364;-1.224;2023-02-11T02:44:19;35.00;;;20.27;;
70543;SDS011;58097;48.364;-1.224;2023-02-11T02:46:44;33.42;;;20.65;;
70543;SDS011;58097;48.364;-1.224;2023-02-11T02:49:13;41.30;;;20.27;;
70543;SDS011;58097;48.364;-1.224;2023-02-11T02:57:27;39.42;;;21.92;;
70543;SDS011;58097;48.364;-1.224;2023-02-11T03:00:17;36.15;;;21.63;;
70543;SDS011;58097;48.364;-1.224;2023-02-11T03:08:19;37.17;;;21.05;;
70543;SDS011;58097;48.364;-1.224;2023-02-11T03:10:51;38.78;;;20.40;;
70543;SDS011;58097;48.364;-1.224;2023-02-11T03:13:19;37.38;;;20.67;;
70543;SDS011;58097;48.364;-1.224;2023-02-11T03:15:49;36.13;;;20.00;;
70543;SDS011;58097;48.364;-1.224;2023-02-11T03:18:20;36.95;;;21.27;;
70543;SDS011;58097;48.364;-1.224;2023-02-11T03:20:49;39.35;;;22.45;;
70543;SDS011;58097;48.364;-1.224;2023-02-11T03:23:36;41.95;;;23.70;;
70543;SDS011;58097;48.364;-1.224;2023-02-11T03:26:17;36.92;;;21.77;;
70543;SDS011;58097;48.364;-1.224;2023-02-11T03:34:21;33.55;;;20.58;;
70543;SDS011;58097;48.364;-1.224;2023-02-11T03:36:55;41.22;;;21.75;;
70543;SDS011;58097;48.364;-1.224;2023-02-11T03:39:32;38.30;;;21.35;;
70543;SDS011;58097;48.364;-1.224;2023-02-11T03:42:02;41.55;;;22.77;;
70543;SDS011;58097;48.364;-1.224;2023-02-11T03:44:31;38.70;;;21.65;;
70543;SDS011;58097;48.364;-1.224;2023-02-11T03:47:01;32.67;;;20.02;;
70543;SDS011;58097;48.364;-1.224;2023-02-11T03:49:29;38.72;;;21.00;;
70543;SDS011;58097;48.364;-1.224;2023-02-11T03:51:57;42.42;;;23.13;;
70543;SDS011;58097;48.364;-1.224;2023-02-11T03:54:29;38.90;;;21.83;;
70543;SDS011;58097;48.364;-1.224;2023-02-11T03:56:55;28.00;;;18.17;;
70543;SDS011;58097;48.364;-1.224;2023-02-11T03:59:23;30.05;;;19.75;;
70543;SDS011;58097;48.364;-1.224;2023-02-11T04:01:48;31.08;;;19.52;;
70543;SDS011;58097;48.364;-1.224;2023-02-11T04:04:13;29.45;;;18.95;;
70543;SDS011;58097;48.364;-1.224;2023-02-11T04:06:39;35.42;;;20.02;;
70543;SDS011;58097;48.364;-1.224;2023-02-11T04:09:05;31.70;;;19.48;;
70543;SDS011;58097;48.364;-1.224;2023-02-11T04:11:30;34.95;;;19.92;;
70543;SDS011;58097;48.364;-1.224;2023-02-11T04:13:56;24.75;;;16.63;;
70543;SDS011;58097;48.364;-1.224;2023-02-11T04:16:21;25.45;;;16.45;;
70543;SDS011;58097;48.364;-1.224;2023-02-11T04:18:46;24.60;;;16.63;;
70543;SDS011;58097;48.364;-1.224;2023-02-11T04:21:12;25.83;;;16.08;;
70543;SDS011;58097;48.364;-1.224;2023-02-11T04:23:37;24.35;;;16.15;;
70543;SDS011;58097;48.364;-1.224;2023-02-11T04:26:03;26.27;;;17.33;;
70543;SDS011;58097;48.364;-1.224;2023-02-11T04:28:28;26.85;;;16.77;;
70543;SDS011;58097;48.364;-1.224;2023-02-11T04:30:54;31.75;;;16.73;;
70543;SDS011;58097;48.364;-1.224;2023-02-11T04:33:20;37.60;;;18.15;;
70543;SDS011;58097;48.364;-1.224;2023-02-11T04:35:45;32.50;;;18.77;;
70543;SDS011;58097;48.364;-1.224;2023-02-11T04:38:11;40.55;;;21.65;;
70543;SDS011;58097;48.364;-1.224;2023-02-11T04:40:36;46.08;;;22.67;;
70543;SDS011;58097;48.364;-1.224;2023-02-11T04:43:02;47.78;;;24.77;;
70543;SDS011;58097;48.364;-1.224;2023-02-11T04:45:27;53.15;;;23.38;;
70543;SDS011;58097;48.364;-1.224;2023-02-11T04:47:52;42.55;;;20.77;;
70543;SDS011;58097;48.364;-1.224;2023-02-11T04:50:18;42.75;;;21.25;;
70543;SDS011;58097;48.364;-1.224;2023-02-11T04:52:43;51.42;;;25.95;;
70543;SDS011;58097;48.364;-1.224;2023-02-11T04:55:09;47.83;;;25.35;;
70543;SDS011;58097;48.364;-1.224;2023-02-11T04:57:34;48.40;;;24.10;;
70543;SDS011;58097;48.364;-1.224;2023-02-11T04:59:59;41.63;;;22.08;;
70543;SDS011;58097;48.364;-1.224;2023-02-11T05:02:25;46.47;;;23.85;;
70543;SDS011;58097;48.364;-1.224;2023-02-11T05:04:50;42.65;;;23.67;;
70543;SDS011;58097;48.364;-1.224;2023-02-11T05:07:15;57.33;;;26.40;;
70543;SDS011;58097;48.364;-1.224;2023-02-11T05:09:41;39.80;;;22.75;;
70543;SDS011;58097;48.364;-1.224;2023-02-11T05:12:06;32.10;;;18.98;;
70543;SDS011;58097;48.364;-1.224;2023-02-11T05:14:31;29.92;;;17.65;;
70543;SDS011;58097;48.364;-1.224;2023-02-11T05:16:57;34.63;;;20.23;;
70543;SDS011;58097;48.364;-1.224;2023-02-11T05:19:22;30.13;;;18.98;;
70543;SDS011;58097;48.364;-1.224;2023-02-11T05:21:48;27.83;;;18.20;;
70543;SDS011;58097;48.364;-1.224;2023-02-11T05:24:13;29.98;;;17.85;;
70543;SDS011;58097;48.364;-1.224;2023-02-11T05:26:39;24.17;;;16.08;;
70543;SDS011;58097;48.364;-1.224;2023-02-11T05:29:04;26.08;;;16.40;;
70543;SDS011;58097;48.364;-1.224;2023-02-11T05:31:29;28.80;;;18.05;;
70543;SDS011;58097;48.364;-1.224;2023-02-11T05:33:55;38.72;;;19.73;;
70543;SDS011;58097;48.364;-1.224;2023-02-11T05:36:20;29.17;;;17.27;;
70543;SDS011;58097;48.364;-1.224;2023-02-11T05:38:45;33.70;;;19.02;;
70543;SDS011;58097;48.364;-1.224;2023-02-11T05:41:11;29.17;;;19.00;;
70543;SDS011;58097;48.364;-1.224;2023-02-11T05:43:36;27.42;;;17.00;;
70543;SDS011;58097;48.364;-1.224;2023-02-11T05:46:02;27.20;;;17.52;;
70543;SDS011;58097;48.364;-1.224;2023-02-11T05:48:28;23.58;;;16.08;;
70543;SDS011;58097;48.364;-1.224;2023-02-11T05:50:54;32.25;;;16.83;;
70543;SDS011;58097;48.364;-1.224;2023-02-11T05:53:20;27.83;;;17.88;;
70543;SDS011;58097;48.364;-1.224;2023-02-11T05:55:45;33.42;;;17.77;;
70543;SDS011;58097;48.364;-1.224;2023-02-11T05:58:10;37.70;;;19.70;;
70543;SDS011;58097;48.364;-1.224;2023-02-11T06:00:36;34.92;;;18.98;;
70543;SDS011;58097;48.364;-1.224;2023-02-11T06:03:01;36.13;;;20.65;;
70543;SDS011;58097;48.364;-1.224;2023-02-11T06:05:28;31.95;;;18.83;;
70543;SDS011;58097;48.364;-1.224;2023-02-11T06:07:54;30.42;;;18.67;;
70543;SDS011;58097;48.364;-1.224;2023-02-11T06:10:19;28.88;;;17.42;;
70543;SDS011;58097;48.364;-1.224;2023-02-11T06:12:44;25.92;;;16.42;;
70543;SDS011;58097;48.364;-1.224;2023-02-11T06:15:10;33.08;;;18.55;;
70543;SDS011;58097;48.364;-1.224;2023-02-11T06:17:35;32.97;;;19.88;;
70543;SDS011;58097;48.364;-1.224;2023-02-11T06:20:01;30.88;;;17.98;;
70543;SDS011;58097;48.364;-1.224;2023-02-11T06:22:30;31.90;;;19.40;;
70543;SDS011;58097;48.364;-1.224;2023-02-11T06:24:56;27.90;;;17.33;;
70543;SDS011;58097;48.364;-1.224;2023-02-11T06:27:21;27.00;;;17.50;;
70543;SDS011;58097;48.364;-1.224;2023-02-11T06:29:47;32.10;;;18.17;;
70543;SDS011;58097;48.364;-1.224;2023-02-11T06:32:12;43.92;;;22.83;;
70543;SDS011;58097;48.364;-1.224;2023-02-11T06:34:37;37.75;;;22.10;;
70543;SDS011;58097;48.364;-1.224;2023-02-11T06:37:03;40.17;;;22.20;;
70543;SDS011;58097;48.364;-1.224;2023-02-11T06:39:29;35.33;;;20.30;;
70543;SDS011;58097;48.364;-1.224;2023-02-11T06:41:54;33.72;;;21.77;;
70543;SDS011;58097;48.364;-1.224;2023-02-11T06:44:20;32.83;;;19.95;;
70543;SDS011;58097;48.364;-1.224;2023-02-11T06:46:45;38.05;;;20.98;;
70543;SDS011;58097;48.364;-1.224;2023-02-11T06:49:11;33.50;;;20.60;;
70543;SDS011;58097;48.364;-1.224;2023-02-11T06:51:37;32.75;;;19.67;;
70543;SDS011;58097;48.364;-1.224;2023-02-11T06:54:03;34.95;;;19.40;;
70543;SDS011;58097;48.364;-1.224;2023-02-11T06:56:29;32.20;;;21.08;;
70543;SDS011;58097;48.364;-1.224;2023-02-11T06:58:55;32.55;;;20.00;;
70543;SDS011;58097;48.364;-1.224;2023-02-11T07:01:21;31.77;;;17.15;;
70543;SDS011;58097;48.364;-1.224;2023-02-11T07:03:48;32.03;;;19.13;;
70543;SDS011;58097;48.364;-1.224;2023-02-11T07:06:15;27.40;;;18.52;;
70543;SDS011;58097;48.364;-1.224;2023-02-11T07:08:41;29.80;;;18.40;;
70543;SDS011;58097;48.364;-1.224;2023-02-11T07:11:10;32.90;;;19.88;;
70543;SDS011;58097;48.364;-1.224;2023-02-11T07:13:37;35.70;;;20.60;;
70543;SDS011;58097;48.364;-1.224;2023-02-11T07:16:06;27.05;;;18.95;;
70543;SDS011;58097;48.364;-1.224;2023-02-11T07:18:32;32.42;;;19.33;;
70543;SDS011;58097;48.364;-1.224;2023-02-11T07:20:58;31.98;;;20.00;;
70543;SDS011;58097;48.364;-1.224;2023-02-11T07:23:23;26.35;;;17.45;;
70543;SDS011;58097;48.364;-1.224;2023-02-11T07:25:48;28.15;;;17.38;;
70543;SDS011;58097;48.364;-1.224;2023-02-11T07:28:14;27.77;;;17.83;;
70543;SDS011;58097;48.364;-1.224;2023-02-11T07:30:39;27.80;;;17.50;;
70543;SDS011;58097;48.364;-1.224;2023-02-11T07:33:04;30.63;;;19.88;;
70543;SDS011;58097;48.364;-1.224;2023-02-11T07:35:30;33.28;;;19.52;;
70543;SDS011;58097;48.364;-1.224;2023-02-11T07:37:55;31.98;;;18.52;;
70543;SDS011;58097;48.364;-1.224;2023-02-11T07:40:20;28.55;;;18.15;;
70543;SDS011;58097;48.364;-1.224;2023-02-11T07:42:46;31.80;;;17.67;;
70543;SDS011;58097;48.364;-1.224;2023-02-11T07:45:11;24.92;;;16.58;;
70543;SDS011;58097;48.364;-1.224;2023-02-11T07:47:38;25.58;;;16.30;;
70543;SDS011;58097;48.364;-1.224;2023-02-11T07:50:03;33.15;;;19.30;;
70543;SDS011;58097;48.364;-1.224;2023-02-11T07:52:29;39.92;;;22.10;;
70543;SDS011;58097;48.364;-1.224;2023-02-11T07:54:55;40.75;;;25.02;;
70543;SDS011;58097;48.364;-1.224;2023-02-11T07:57:20;39.22;;;23.45;;
70543;SDS011;58097;48.364;-1.224;2023-02-11T07:59:46;34.65;;;20.10;;
70543;SDS011;58097;48.364;-1.224;2023-02-11T08:02:11;36.38;;;22.73;;
70543;SDS011;58097;48.364;-1.224;2023-02-11T08:04:37;30.98;;;21.13;;
70543;SDS011;58097;48.364;-1.224;2023-02-11T08:07:03;35.53;;;22.27;;
70543;SDS011;58097;48.364;-1.224;2023-02-11T08:09:29;33.53;;;20.92;;
70543;SDS011;58097;48.364;-1.224;2023-02-11T08:11:54;28.10;;;17.60;;
70543;SDS011;58097;48.364;-1.224;2023-02-11T08:14:19;28.52;;;16.83;;
70543;SDS011;58097;48.364;-1.224;2023-02-11T08:16:45;30.52;;;17.90;;
70543;SDS011;58097;48.364;-1.224;2023-02-11T08:19:11;27.55;;;17.13;;
70543;SDS011;58097;48.364;-1.224;2023-02-11T08:21:39;26.83;;;16.85;;
70543;SDS011;58097;48.364;-1.224;2023-02-11T08:24:05;27.05;;;17.60;;
70543;SDS011;58097;48.364;-1.224;2023-02-11T08:26:31;25.23;;;16.30;;
70543;SDS011;58097;48.364;-1.224;2023-02-11T08:28:58;25.05;;;16.77;;
70543;SDS011;58097;48.364;-1.224;2023-02-11T08:31:26;25.40;;;16.30;;
70543;SDS011;58097;48.364;-1.224;2023-02-11T08:33:53;26.52;;;17.50;;
70543;SDS011;58097;48.364;-1.224;2023-02-11T08:36:22;30.42;;;18.77;;
70543;SDS011;58097;48.364;-1.224;2023-02-11T08:38:50;26.40;;;17.73;;
70543;SDS011;58097;48.364;-1.224;2023-02-11T08:41:15;22.52;;;14.98;;
70543;SDS011;58097;48.364;-1.224;2023-02-11T08:43:42;22.15;;;15.60;;
70543;SDS011;58097;48.364;-1.224;2023-02-11T08:46:09;22.30;;;15.38;;
70543;SDS011;58097;48.364;-1.224;2023-02-11T08:48:37;21.83;;;14.65;;
70543;SDS011;58097;48.364;-1.224;2023-02-11T08:51:06;21.83;;;15.73;;
70543;SDS011;58097;48.364;-1.224;2023-02-11T08:53:43;25.20;;;16.60;;
70543;SDS011;58097;48.364;-1.224;2023-02-11T08:56:09;26.63;;;16.30;;
70543;SDS011;58097;48.364;-1.224;2023-02-11T08:58:35;24.52;;;17.15;;
70543;SDS011;58097;48.364;-1.224;2023-02-11T09:01:01;33.63;;;18.57;;
70543;SDS011;58097;48.364;-1.224;2023-02-11T09:03:26;29.90;;;19.67;;
70543;SDS011;58097;48.364;-1.224;2023-02-11T09:05:52;28.67;;;18.08;;
70543;SDS011;58097;48.364;-1.224;2023-02-11T09:08:19;23.20;;;17.13;;
70543;SDS011;58097;48.364;-1.224;2023-02-11T09:10:45;25.00;;;17.75;;
70543;SDS011;58097;48.364;-1.224;2023-02-11T09:13:10;27.65;;;17.08;;
70543;SDS011;58097;48.364;-1.224;2023-02-11T09:15:36;27.15;;;19.05;;
70543;SDS011;58097;48.364;-1.224;2023-02-11T09:18:02;29.92;;;20.10;;
70543;SDS011;58097;48.364;-1.224;2023-02-11T09:20:28;32.15;;;18.55;;
70543;SDS011;58097;48.364;-1.224;2023-02-11T09:22:54;30.50;;;19.30;;
70543;SDS011;58097;48.364;-1.224;2023-02-11T09:25:21;28.73;;;18.05;;
70543;SDS011;58097;48.364;-1.224;2023-02-11T09:27:46;24.85;;;17.63;;
70543;SDS011;58097;48.364;-1.224;2023-02-11T09:30:12;26.95;;;18.20;;
70543;SDS011;58097;48.364;-1.224;2023-02-11T09:32:38;20.73;;;17.60;;
70543;SDS011;58097;48.364;-1.224;2023-02-11T09:35:03;23.65;;;18.15;;
70543;SDS011;58097;48.364;-1.224;2023-02-11T09:37:29;26.38;;;18.60;;
70543;SDS011;58097;48.364;-1.224;2023-02-11T09:39:54;26.23;;;17.42;;
70543;SDS011;58097;48.364;-1.224;2023-02-11T09:45:26;30.38;;;19.35;;
70543;SDS011;58097;48.364;-1.224;2023-02-11T09:47:55;28.05;;;17.88;;
70543;SDS011;58097;48.364;-1.224;2023-02-11T09:50:39;28.65;;;19.65;;
70543;SDS011;58097;48.364;-1.224;2023-02-11T09:56:08;30.48;;;19.70;;
70543;SDS011;58097;48.364;-1.224;2023-02-11T09:58:38;30.23;;;19.65;;
70543;SDS011;58097;48.364;-1.224;2023-02-11T10:04:02;24.38;;;17.55;;
70543;SDS011;58097;48.364;-1.224;2023-02-11T10:12:02;24.58;;;15.50;;
70543;SDS011;58097;48.364;-1.224;2023-02-11T10:20:37;19.75;;;14.02;;
70543;SDS011;58097;48.364;-1.224;2023-02-11T10:23:14;23.65;;;14.85;;
70543;SDS011;58097;48.364;-1.224;2023-02-11T10:33:16;17.60;;;9.45;;
70543;SDS011;58097;48.364;-1.224;2023-02-11T10:35:49;17.50;;;9.95;;
70543;SDS011;58097;48.364;-1.224;2023-02-11T10:38:14;15.60;;;11.18;;
70543;SDS011;58097;48.364;-1.224;2023-02-11T10:40:40;11.90;;;8.75;;
70543;SDS011;58097;48.364;-1.224;2023-02-11T10:43:06;15.10;;;8.80;;
70543;SDS011;58097;48.364;-1.224;2023-02-11T10:45:38;12.98;;;8.85;;
70543;SDS011;58097;48.364;-1.224;2023-02-11T10:51:07;10.40;;;7.03;;
70543;SDS011;58097;48.364;-1.224;2023-02-11T10:53:37;10.45;;;7.60;;
70543;SDS011;58097;48.364;-1.224;2023-02-11T10:56:03;11.15;;;5.85;;
70543;SDS011;58097;48.364;-1.224;2023-02-11T10:58:33;16.95;;;7.50;;
70543;SDS011;58097;48.364;-1.224;2023-02-11T11:01:00;9.18;;;6.88;;
70543;SDS011;58097;48.364;-1.224;2023-02-11T11:03:26;10.55;;;6.70;;
70543;SDS011;58097;48.364;-1.224;2023-02-11T11:05:57;13.00;;;7.95;;
70543;SDS011;58097;48.364;-1.224;2023-02-11T11:08:41;9.68;;;7.40;;
70543;SDS011;58097;48.364;-1.224;2023-02-11T11:11:09;10.95;;;7.40;;
70543;SDS011;58097;48.364;-1.224;2023-02-11T11:16:18;9.98;;;7.10;;
70543;SDS011;58097;48.364;-1.224;2023-02-11T11:24:30;11.45;;;6.65;;
70543;SDS011;58097;48.364;-1.224;2023-02-11T11:26:59;10.23;;;6.80;;
70543;SDS011;58097;48.364;-1.224;2023-02-11T11:29:35;9.20;;;6.43;;
70543;SDS011;58097;48.364;-1.224;2023-02-11T11:34:52;11.32;;;6.55;;
70543;SDS011;58097;48.364;-1.224;2023-02-11T11:37:33;9.73;;;6.55;;
70543;SDS011;58097;48.364;-1.224;2023-02-11T11:40:08;8.88;;;6.47;;
70543;SDS011;58097;48.364;-1.224;2023-02-11T11:42:34;8.77;;;6.65;;
70543;SDS011;58097;48.364;-1.224;2023-02-11T11:50:42;13.50;;;7.60;;
70543;SDS011;58097;48.364;-1.224;2023-02-11T11:53:20;8.85;;;6.70;;
70543;SDS011;58097;48.364;-1.224;2023-02-11T11:55:59;9.82;;;6.72;;
70543;SDS011;58097;48.364;-1.224;2023-02-11T11:58:37;9.73;;;6.25;;
70543;SDS011;58097;48.364;-1.224;2023-02-11T12:17:08;7.95;;;5.38;;
70543;SDS011;58097;48.364;-1.224;2023-02-11T12:23:20;6.57;;;4.38;;
70543;SDS011;58097;48.364;-1.224;2023-02-11T12:25:50;6.22;;;5.13;;
70543;SDS011;58097;48.364;-1.224;2023-02-11T12:30:53;8.25;;;5.25;;
70543;SDS011;58097;48.364;-1.224;2023-02-11T12:52:53;12.10;;;7.65;;
70543;SDS011;58097;48.364;-1.224;2023-02-11T12:55:22;10.68;;;7.32;;
70543;SDS011;58097;48.364;-1.224;2023-02-11T12:57:51;12.20;;;8.00;;
70543;SDS011;58097;48.364;-1.224;2023-02-11T13:00:23;11.65;;;8.27;;
70543;SDS011;58097;48.364;-1.224;2023-02-11T13:02:58;8.63;;;6.38;;
70543;SDS011;58097;48.364;-1.224;2023-02-11T13:05:48;11.93;;;7.22;;
70543;SDS011;58097;48.364;-1.224;2023-02-11T13:10:47;9.70;;;7.20;;
70543;SDS011;58097;48.364;-1.224;2023-02-11T13:13:38;9.17;;;5.73;;
70543;SDS011;58097;48.364;-1.224;2023-02-11T13:19:14;10.05;;;7.10;;
70543;SDS011;58097;48.364;-1.224;2023-02-11T13:35:41;6.90;;;5.93;;
70543;SDS011;58097;48.364;-1.224;2023-02-11T13:38:21;6.70;;;5.35;;
70543;SDS011;58097;48.364;-1.224;2023-02-11T13:43:28;10.27;;;6.32;;
70543;SDS011;58097;48.364;-1.224;2023-02-11T13:46:03;7.55;;;5.88;;
70543;SDS011;58097;48.364;-1.224;2023-02-11T13:51:01;7.72;;;6.03;;
70543;SDS011;58097;48.364;-1.224;2023-02-11T13:53:30;7.15;;;5.65;;
70543;SDS011;58097;48.364;-1.224;2023-02-11T13:56:10;9.93;;;6.05;;
70543;SDS011;58097;48.364;-1.224;2023-02-11T13:58:47;8.05;;;5.95;;
70543;SDS011;58097;48.364;-1.224;2023-02-11T14:02:00;9.52;;;5.80;;
70543;SDS011;58097;48.364;-1.224;2023-02-11T14:04:20;5.32;;;3.72;;
70543;SDS011;58097;48.364;-1.224;2023-02-11T14:16:08;7.60;;;4.75;;
70543;SDS011;58097;48.364;-1.224;2023-02-11T14:18:36;5.65;;;4.43;;
70543;SDS011;58097;48.364;-1.224;2023-02-11T14:23:51;6.22;;;4.07;;
70543;SDS011;58097;48.364;-1.224;2023-02-11T14:28:43;6.95;;;4.20;;
70543;SDS011;58097;48.364;-1.224;2023-02-11T14:31:39;6.07;;;4.68;;
70543;SDS011;58097;48.364;-1.224;2023-02-11T14:42:19;6.72;;;4.57;;
70543;SDS011;58097;48.364;-1.224;2023-02-11T14:44:50;8.13;;;5.03;;
70543;SDS011;58097;48.364;-1.224;2023-02-11T14:47:20;5.80;;;5.03;;
70543;SDS011;58097;48.364;-1.224;2023-02-11T14:49:51;8.88;;;5.18;;
70543;SDS011;58097;48.364;-1.224;2023-02-11T14:52:30;9.43;;;5.32;;
70543;SDS011;58097;48.364;-1.224;2023-02-11T14:55:15;8.20;;;5.25;;
70543;SDS011;58097;48.364;-1.224;2023-02-11T15:00:46;8.30;;;5.63;;
70543;SDS011;58097;48.364;-1.224;2023-02-11T15:03:26;6.70;;;4.68;;
70543;SDS011;58097;48.364;-1.224;2023-02-11T15:08:41;9.15;;;4.57;;
70543;SDS011;58097;48.364;-1.224;2023-02-11T15:11:11;6.68;;;4.28;;
70543;SDS011;58097;48.364;-1.224;2023-02-11T15:13:39;4.63;;;3.80;;
70543;SDS011;58097;48.364;-1.224;2023-02-11T15:16:11;6.32;;;3.85;;
70543;SDS011;58097;48.364;-1.224;2023-02-11T15:18:39;6.28;;;3.97;;
70543;SDS011;58097;48.364;-1.224;2023-02-11T15:21:08;7.30;;;4.60;;
70543;SDS011;58097;48.364;-1.224;2023-02-11T15:23:34;7.47;;;3.97;;
70543;SDS011;58097;48.364;-1.224;2023-02-11T15:26:01;7.75;;;4.18;;
70543;SDS011;58097;48.364;-1.224;2023-02-11T15:28:33;5.18;;;4.07;;
70543;SDS011;58097;48.364;-1.224;2023-02-11T15:33:24;6.10;;;4.43;;
70543;SDS011;58097;48.364;-1.224;2023-02-11T15:35:50;5.90;;;3.65;;
70543;SDS011;58097;48.364;-1.224;2023-02-11T15:38:16;5.25;;;3.88;;
70543;SDS011;58097;48.364;-1.224;2023-02-11T15:40:50;3.97;;;3.47;;
70543;SDS011;58097;48.364;-1.224;2023-02-11T15:43:17;4.78;;;3.60;;
70543;SDS011;58097;48.364;-1.224;2023-02-11T15:50:59;3.95;;;3.50;;
70543;SDS011;58097;48.364;-1.224;2023-02-11T15:53:28;7.10;;;3.63;;
70543;SDS011;58097;48.364;-1.224;2023-02-11T15:56:01;5.80;;;4.30;;
70543;SDS011;58097;48.364;-1.224;2023-02-11T15:58:39;3.90;;;3.08;;
70543;SDS011;58097;48.364;-1.224;2023-02-11T16:01:06;3.30;;;2.72;;
70543;SDS011;58097;48.364;-1.224;2023-02-11T16:03:32;3.20;;;2.80;;
70543;SDS011;58097;48.364;-1.224;2023-02-11T16:06:14;3.00;;;2.70;;
70543;SDS011;58097;48.364;-1.224;2023-02-11T16:08:39;6.05;;;2.95;;
70543;SDS011;58097;48.364;-1.224;2023-02-11T16:11:17;6.80;;;4.43;;
70543;SDS011;58097;48.364;-1.224;2023-02-11T16:13:50;7.13;;;4.40;;
70543;SDS011;58097;48.364;-1.224;2023-02-11T16:16:19;7.50;;;4.93;;
70543;SDS011;58097;48.364;-1.224;2023-02-11T16:18:51;4.65;;;3.67;;
70543;SDS011;58097;48.364;-1.224;2023-02-11T16:21:20;3.83;;;3.38;;
70543;SDS011;58097;48.364;-1.224;2023-02-11T16:23:56;4.97;;;3.65;;
70543;SDS011;58097;48.364;-1.224;2023-02-11T16:26:27;4.65;;;3.70;;
70543;SDS011;58097;48.364;-1.224;2023-02-11T16:29:08;4.43;;;3.75;;
70543;SDS011;58097;48.364;-1.224;2023-02-11T16:31:40;7.30;;;3.95;;
70543;SDS011;58097;48.364;-1.224;2023-02-11T16:36:42;4.53;;;3.67;;
70543;SDS011;58097;48.364;-1.224;2023-02-11T16:39:08;4.80;;;3.35;;
70543;SDS011;58097;48.364;-1.224;2023-02-11T16:41:34;4.68;;;3.25;;
70543;SDS011;58097;48.364;-1.224;2023-02-11T16:43:59;4.47;;;3.30;;
70543;SDS011;58097;48.364;-1.224;2023-02-11T16:46:25;5.57;;;3.38;;
70543;SDS011;58097;48.364;-1.224;2023-02-11T16:48:51;4.13;;;3.28;;
70543;SDS011;58097;48.364;-1.224;2023-02-11T16:51:18;6.18;;;3.67;;
70543;SDS011;58097;48.364;-1.224;2023-02-11T16:53:43;5.40;;;4.15;;
70543;SDS011;58097;48.364;-1.224;2023-02-11T16:56:10;5.32;;;3.67;;
70543;SDS011;58097;48.364;-1.224;2023-02-11T16:58:39;4.30;;;3.60;;
70543;SDS011;58097;48.364;-1.224;2023-02-11T17:01:05;6.38;;;4.35;;
70543;SDS011;58097;48.364;-1.224;2023-02-11T17:03:30;5.68;;;4.07;;
70543;SDS011;58097;48.364;-1.224;2023-02-11T17:06:01;7.03;;;3.97;;
70543;SDS011;58097;48.364;-1.224;2023-02-11T17:08:29;4.80;;;3.78;;
70543;SDS011;58097;48.364;-1.224;2023-02-11T17:10:55;6.07;;;4.63;;
70543;SDS011;58097;48.364;-1.224;2023-02-11T17:13:20;5.95;;;4.45;;
70543;SDS011;58097;48.364;-1.224;2023-02-11T17:15:45;8.10;;;4.55;;
70543;SDS011;58097;48.364;-1.224;2023-02-11T17:18:11;5.35;;;4.10;;
70543;SDS011;58097;48.364;-1.224;2023-02-11T17:20:38;8.35;;;5.13;;
70543;SDS011;58097;48.364;-1.224;2023-02-11T17:23:04;7.75;;;4.60;;
70543;SDS011;58097;48.364;-1.224;2023-02-11T17:25:29;5.90;;;4.70;;
70543;SDS011;58097;48.364;-1.224;2023-02-11T17:27:55;8.02;;;4.43;;
70543;SDS011;58097;48.364;-1.224;2023-02-11T17:30:20;6.45;;;4.45;;
70543;SDS011;58097;48.364;-1.224;2023-02-11T17:32:47;8.18;;;4.60;;
70543;SDS011;58097;48.364;-1.224;2023-02-11T17:35:12;7.80;;;5.18;;
70543;SDS011;58097;48.364;-1.224;2023-02-11T17:37:38;5.47;;;4.60;;
70543;SDS011;58097;48.364;-1.224;2023-02-11T17:40:04;7.10;;;5.10;;
70543;SDS011;58097;48.364;-1.224;2023-02-11T17:42:30;7.75;;;4.95;;